Time;durP1;ratioP1;P1;durP2;ratioP2;P2;SDS_P1;SDS_P2;PMS_P1;PMS_P2;Temp;Humidity;BMP_temperature;BMP_pressure;BME280_temperature;BME280_humidity;BME280_pressure;Samples;Min_cycle;Max_cycle;Signal;HPM_P1;HPM_P2
2022/10/10 07:17:57;;;;;;;22.93;3.37;;;;;;;15.93;72.88;96648.09;2044963;28;1207859;-67
2022/10/10 07:18:59;;;;;;;16.65;3.22;;;;;;;16.18;71.37;96646.47;2098194;28;20451;-68
2022/10/10 07:20:00;;;;;;;8.75;2.92;;;;;;;15.00;72.88;96646.09;2087588;28;20251;-67
2022/10/10 07:21:03;;;;;;;12.77;3.67;;;;;;;15.40;73.63;96645.34;2085995;28;20207;-67
2022/10/10 07:22:04;;;;;;;6.25;2.85;;;;;;;15.95;71.80;96651.47;2086038;28;20308;-67
2022/10/10 07:23:06;;;;;;;8.88;3.40;;;;;;;16.15;70.25;96658.88;2086819;28;20862;-67
2022/10/10 07:24:07;;;;;;;11.38;2.63;;;;;;;16.30;69.77;96657.00;2087366;28;20220;-67
2022/10/10 07:25:08;;;;;;;10.50;2.80;;;;;;;16.60;68.66;96655.03;2087088;28;20287;-67
2022/10/10 07:26:12;;;;;;;6.68;2.88;;;;;;;16.70;68.18;96658.69;2086473;28;20291;-67
2022/10/10 07:47:06;;;;;;;16.25;4.80;;;;;;;15.13;74.04;96670.66;2084974;28;20572;-67
2022/10/10 07:48:11;;;;;;;34.05;6.47;;;;;;;15.02;74.06;96670.50;2086782;28;20648;-67
2022/10/10 07:49:13;;;;;;;37.58;7.35;;;;;;;14.93;74.64;96679.81;2084776;28;20223;-67
2022/10/10 07:50:14;;;;;;;45.75;8.05;;;;;;;14.98;74.64;96683.00;2083645;28;20228;-67
2022/10/10 07:51:16;;;;;;;44.80;7.22;;;;;;;14.92;74.95;96679.88;2081862;28;20326;-67
2022/10/10 07:52:18;;;;;;;53.08;8.30;;;;;;;14.78;75.04;96665.81;2081885;28;20235;-67
2022/10/10 07:53:22;;;;;;;34.60;7.38;;;;;;;14.81;75.25;96681.38;2079509;28;20229;-67
2022/10/10 07:54:24;;;;;;;38.58;6.38;;;;;;;14.73;75.44;96678.41;2082362;28;20224;-67
2022/10/10 08:13:47;;;;;;;11.30;3.20;;;;;;;15.48;74.25;96680.75;2090874;28;20606;-67
2022/10/10 08:14:53;;;;;;;9.75;3.90;;;;;;;15.80;73.69;96682.25;2089731;28;20769;-67
2022/10/10 08:15:54;;;;;;;10.38;3.88;;;;;;;16.10;72.13;96662.75;2086300;28;20285;-67
2022/10/10 08:16:55;;;;;;;14.98;3.38;;;;;;;16.23;72.11;96692.59;2087420;28;20630;-67
2022/10/10 08:17:57;;;;;;;8.55;3.58;;;;;;;15.94;72.72;96695.38;2088149;27;20250;-67
2022/10/10 08:18:58;;;;;;;10.88;2.70;;;;;;;15.77;72.96;96693.81;2097576;28;20237;-67
2022/10/10 08:20:00;;;;;;;9.23;3.35;;;;;;;15.71;73.20;96690.75;2083994;28;20653;-65
2022/10/10 08:21:07;;;;;;;8.70;3.13;;;;;;;15.51;74.20;96698.13;2084128;28;20669;-66
2022/10/10 08:22:08;;;;;;;15.90;3.03;;;;;;;15.60;74.40;96700.16;2074208;28;20236;-65
2022/10/10 08:23:09;;;;;;;12.60;3.08;;;;;;;15.63;73.64;96692.09;2085865;28;20200;-66
2022/10/10 08:24:11;;;;;;;6.40;3.00;;;;;;;15.95;73.47;96699.69;2079940;28;20712;-65
2022/10/10 08:25:12;;;;;;;6.47;3.28;;;;;;;16.10;72.76;96697.84;2085421;28;20667;-66
2022/10/10 08:26:18;;;;;;;10.95;3.67;;;;;;;16.59;71.38;96698.13;2085549;28;20354;-65
2022/10/10 08:27:20;;;;;;;5.60;2.45;;;;;;;16.68;70.57;96696.66;2084612;28;21839;-65
2022/10/10 08:28:22;;;;;;;9.10;3.10;;;;;;;16.53;71.04;96688.88;2082305;28;20227;-65
2022/10/10 08:29:24;;;;;;;8.63;2.70;;;;;;;16.40;71.29;96696.72;2081957;28;20197;-66
2022/10/10 08:30:25;;;;;;;6.20;2.33;;;;;;;16.42;71.52;96701.94;2082245;28;20231;-65
2022/10/10 08:31:27;;;;;;;7.13;2.63;;;;;;;16.52;71.50;96702.13;2085405;28;21075;-65
2022/10/10 08:32:31;;;;;;;16.60;3.03;;;;;;;16.78;70.48;96681.91;2074098;28;20328;-65
2022/10/10 08:33:32;;;;;;;3.60;2.10;;;;;;;17.03;69.65;96682.88;2091968;28;20243;-67
2022/10/10 08:34:34;;;;;;;7.05;2.78;;;;;;;17.85;67.60;96682.28;2081153;28;20235;-67
2022/10/10 08:35:38;;;;;;;8.90;3.00;;;;;;;18.06;66.99;96691.31;2082966;28;20284;-67
2022/10/10 08:36:40;;;;;;;6.25;2.45;;;;;;;18.21;65.15;96688.50;2079535;28;20292;-67
2022/10/10 08:37:42;;;;;;;4.45;2.50;;;;;;;18.81;63.76;96688.38;2076952;28;20243;-67
2022/10/10 08:38:44;;;;;;;6.50;2.33;;;;;;;18.95;63.94;96688.16;2086488;28;20292;-67
2022/10/10 08:39:45;;;;;;;5.25;2.28;;;;;;;19.52;62.16;96693.44;2086444;28;20281;-67
2022/10/10 08:40:49;;;;;;;9.68;2.65;;;;;;;18.81;63.27;96683.91;2086043;28;20203;-67
2022/10/10 08:41:59;;;;;;;5.68;2.65;;;;;;;18.53;64.31;96685.22;2082424;28;20239;-67
2022/10/10 08:43:05;;;;;;;5.22;2.47;;;;;;;18.83;64.10;96691.72;2076895;28;20287;-67
2022/10/10 08:44:21;;;;;;;5.32;2.58;;;;;;;18.82;63.79;96695.38;2082667;28;20246;-67
2022/10/10 08:45:25;;;;;;;6.25;2.13;;;;;;;18.14;65.75;96697.81;2081391;28;20284;-67
2022/10/10 08:46:47;;;;;;;7.80;2.33;;;;;;;17.91;66.50;96705.63;2079973;28;20284;-67
2022/10/10 08:47:55;;;;;;;6.45;2.25;;;;;;;17.79;66.89;96695.00;2084287;28;20372;-67
2022/10/10 08:49:11;;;;;;;3.92;2.10;;;;;;;19.60;62.04;96703.41;2099096;28;20196;-67
2022/10/10 08:50:20;;;;;;;4.40;2.70;;;;;;;20.74;58.91;96701.19;2082352;28;20207;-67
2022/10/10 08:51:31;;;;;;;4.30;2.17;;;;;;;21.22;58.07;96695.28;2083173;28;20196;-68
2022/10/10 08:52:49;;;;;;;16.38;2.50;;;;;;;21.15;57.66;96699.44;2080181;28;20297;-67
2022/10/10 08:59:02;;;;;;;7.78;2.40;;;;;;;19.13;62.65;96708.88;2082572;28;20212;-67
2022/10/10 09:00:11;;;;;;;5.05;2.47;;;;;;;19.03;63.59;96701.66;2078790;28;20228;-68
2022/10/10 09:01:18;;;;;;;7.93;2.38;;;;;;;18.59;64.52;96677.66;2078143;28;20201;-67
2022/10/10 09:02:28;;;;;;;6.90;2.20;;;;;;;18.14;65.86;96695.19;2079611;28;20246;-67
2022/10/10 09:03:54;;;;;;;5.15;1.65;;;;;;;17.73;67.57;96695.44;2099174;28;20294;-67
2022/10/10 09:04:56;;;;;;;10.98;2.35;;;;;;;17.46;68.35;96688.56;2088368;28;20234;-67
2022/10/10 09:06:38;;;;;;;11.23;2.50;;;;;;;17.57;68.30;96685.16;2083072;28;20295;-67
2022/10/10 09:08:00;;;;;;;8.88;2.25;;;;;;;18.98;65.07;96697.69;2084497;28;20242;-67
2022/10/10 09:09:20;;;;;;;9.88;2.00;;;;;;;19.40;63.26;96693.44;2098789;28;20860;-67
2022/10/10 09:10:48;;;;;;;11.40;1.90;;;;;;;18.84;64.60;96701.34;2090262;28;20662;-67
2022/10/10 09:17:05;;;;;;;4.38;1.80;;;;;;;17.40;69.53;96694.28;2084241;28;20232;-67
2022/10/10 09:18:23;;;;;;;5.32;2.00;;;;;;;17.87;67.88;96694.44;2083620;28;20237;-67
2022/10/10 09:19:36;;;;;;;8.50;2.25;;;;;;;18.13;67.32;96691.69;2084432;28;20289;-67
2022/10/10 09:20:50;;;;;;;6.75;2.15;;;;;;;17.67;68.32;96701.16;2080225;28;20303;-67
2022/10/10 09:21:55;;;;;;;4.30;2.25;;;;;;;17.38;69.40;96695.34;2080258;28;20200;-67
2022/10/10 09:29:33;;;;;;;4.25;2.70;;;;;;;18.79;65.89;96698.22;2075477;28;20218;-67
2022/10/10 09:30:44;;;;;;;6.88;2.58;;;;;;;20.22;60.99;96693.97;2076917;28;20281;-67
2022/10/10 09:31:55;;;;;;;6.95;2.50;;;;;;;21.16;59.30;96698.47;2077897;28;20284;-67
2022/10/10 09:33:05;;;;;;;10.25;1.88;;;;;;;22.17;56.35;96695.78;2074420;28;20311;-67
2022/10/10 09:34:18;;;;;;;10.90;2.50;;;;;;;23.07;53.96;96698.19;2082527;28;20227;-67
2022/10/10 09:35:26;;;;;;;4.85;1.92;;;;;;;23.80;52.10;96700.09;2076987;28;20201;-67
2022/10/10 09:36:34;;;;;;;9.95;2.10;;;;;;;23.48;50.73;96606.31;2078939;28;20291;-67
2022/10/10 09:37:38;;;;;;;5.78;2.20;;;;;;;24.84;48.77;96706.72;2078245;28;20306;-67
2022/10/10 09:38:52;;;;;;;7.20;2.28;;;;;;;25.18;48.22;96679.22;2087400;28;20283;-67
2022/10/10 09:40:05;;;;;;;9.65;2.10;;;;;;;24.32;49.79;96706.66;2082436;28;20768;-67
2022/10/10 09:47:54;;;;;;;2.78;1.42;;;;;;;25.85;47.13;96699.03;2081073;28;20213;-69
2022/10/10 09:48:56;;;;;;;4.00;2.10;;;;;;;26.21;45.83;96702.31;2093424;28;20227;-69
2022/10/10 09:49:58;;;;;;;5.00;1.85;;;;;;;25.67;47.29;96701.84;2080515;28;20228;-69
2022/10/10 09:51:02;;;;;;;10.68;2.00;;;;;;;25.68;47.83;96690.97;2079316;28;20197;-69
2022/10/10 09:52:27;;;;;;;5.28;1.70;;;;;;;24.50;48.70;96702.13;2068086;28;20259;-69
2022/10/10 09:53:29;;;;;;;8.27;1.92;;;;;;;24.89;48.51;96696.41;2087900;28;20192;-69
2022/10/10 09:54:30;;;;;;;6.10;2.40;;;;;;;23.22;51.85;96702.06;2083164;28;20204;-69
2022/10/10 09:55:37;;;;;;;6.10;1.92;;;;;;;23.68;51.57;96703.97;2074384;28;20332;-69
2022/10/10 09:56:54;;;;;;;7.50;2.22;;;;;;;24.07;50.95;96709.06;2075093;28;20570;-69
2022/10/10 09:58:03;;;;;;;6.43;2.50;;;;;;;23.18;51.88;96699.88;2074576;28;20308;-69
2022/10/10 09:59:04;;;;;;;10.55;1.95;;;;;;;24.13;51.03;96697.81;2074708;28;20239;-69
2022/10/10 10:00:18;;;;;;;4.00;1.85;;;;;;;24.06;50.49;96699.38;2076414;28;20221;-69
2022/10/10 10:01:24;;;;;;;7.97;2.42;;;;;;;25.14;48.53;96703.72;2077570;28;20283;-69
2022/10/10 10:02:27;;;;;;;6.07;2.17;;;;;;;24.93;47.49;96668.41;2074404;28;20219;-69
2022/10/10 10:03:28;;;;;;;5.53;1.67;;;;;;;24.62;49.86;96700.88;2092151;28;20234;-70
2022/10/10 10:04:32;;;;;;;6.95;1.85;;;;;;;25.26;48.68;96705.97;2084589;28;20224;-69
2022/10/10 10:05:34;;;;;;;5.60;2.30;;;;;;;26.56;44.97;96696.81;2071797;28;20205;-69
2022/10/10 10:06:37;;;;;;;12.20;2.13;;;;;;;26.39;45.64;96695.97;2072817;28;20877;-69
2022/10/10 10:07:46;;;;;;;8.50;2.50;;;;;;;25.64;47.62;96697.66;2074753;28;20308;-69
2022/10/10 10:08:51;;;;;;;9.60;2.08;;;;;;;26.76;45.44;96701.84;2092862;28;20291;-69
2022/10/10 10:09:57;;;;;;;11.20;2.03;;;;;;;26.30;45.07;96697.81;2078255;28;20339;-69
2022/10/10 10:10:59;;;;;;;5.15;1.90;;;;;;;26.60;45.67;96695.47;2077474;28;20321;-69
2022/10/10 10:12:03;;;;;;;3.40;1.60;;;;;;;26.12;45.80;96692.63;2077025;28;20201;-69
2022/10/10 10:13:12;;;;;;;10.38;1.88;;;;;;;23.70;50.91;96684.16;2075541;28;20221;-69
2022/10/10 10:14:25;;;;;;;7.80;2.00;;;;;;;23.41;51.13;96693.16;2077630;28;20557;-69
2022/10/10 10:15:30;;;;;;;4.15;1.65;;;;;;;22.75;52.57;96688.75;2075137;28;20292;-69
2022/10/10 10:16:37;;;;;;;6.13;1.90;;;;;;;24.70;49.07;96710.81;2075918;28;20241;-69
2022/10/10 10:17:38;;;;;;;3.85;1.60;;;;;;;26.11;46.35;96682.91;2074555;28;20216;-69
2022/10/10 10:18:46;;;;;;;9.65;1.88;;;;;;;25.30;47.80;96705.66;2091675;28;20715;-69
2022/10/10 10:19:47;;;;;;;4.88;1.90;;;;;;;25.26;48.15;96689.94;2080377;28;20300;-69
2022/10/10 10:21:06;;;;;;;6.35;2.05;;;;;;;25.87;47.13;96711.25;2078571;28;20607;-69
2022/10/10 10:34:04;;;;;;;7.38;1.83;;;;;;;27.73;43.44;96719.69;2076390;28;20213;-69
2022/10/10 10:35:30;;;;;;;5.20;1.60;;;;;;;28.90;41.07;96708.00;2076772;28;20235;-67
2022/10/10 10:37:04;;;;;;;5.55;2.10;;;;;;;28.61;41.36;96712.28;2074435;28;20697;-67
2022/10/10 10:38:43;;;;;;;11.45;2.15;;;;;;;27.93;42.09;96712.03;2061168;28;20222;-66
2022/10/10 10:40:14;;;;;;;6.93;1.77;;;;;;;27.77;42.09;96711.13;2048154;28;20314;-67
2022/10/10 10:41:37;;;;;;;5.53;2.20;;;;;;;26.48;44.00;96715.56;2075311;28;20205;-67
2022/10/10 10:43:02;;;;;;;5.55;1.50;;;;;;;25.81;45.57;96714.56;2075270;28;20863;-67
2022/10/10 10:44:33;;;;;;;9.30;1.90;;;;;;;26.16;45.58;96712.69;2090143;28;20197;-67
2022/10/10 10:45:59;;;;;;;4.90;2.13;;;;;;;25.71;46.43;96705.84;2075012;28;20652;-67
2022/10/10 10:47:13;;;;;;;9.10;2.20;;;;;;;27.20;43.79;96709.47;2073682;28;20288;-66
2022/10/10 10:48:46;;;;;;;9.13;1.80;;;;;;;27.97;43.09;96708.84;2075615;28;20300;-67
2022/10/10 10:50:15;;;;;;;6.05;2.10;;;;;;;29.09;40.24;96712.84;2076756;28;20283;-66
2022/10/10 10:51:42;;;;;;;9.02;1.85;;;;;;;29.39;39.86;96704.00;2074345;28;20298;-67
2022/10/10 10:52:55;;;;;;;10.32;2.13;;;;;;;29.03;40.53;96718.13;2074790;28;20308;-65
2022/10/10 10:54:18;;;;;;;5.50;1.80;;;;;;;28.55;39.79;96708.44;2090470;28;20206;-65
2022/10/10 10:55:31;;;;;;;9.43;2.60;;;;;;;28.41;40.18;96707.38;2076998;28;20266;-65
2022/10/10 10:56:48;;;;;;;10.23;2.10;;;;;;;29.04;39.11;96706.34;2076625;28;20200;-65
2022/10/10 10:58:23;;;;;;;12.07;2.08;;;;;;;28.63;39.56;96712.91;2076044;28;20782;-65
2022/10/10 11:00:01;;;;;;;6.57;2.33;;;;;;;28.41;39.77;96707.38;2076183;28;20259;-65
2022/10/10 11:01:33;;;;;;;8.50;1.90;;;;;;;28.32;40.85;96703.91;2077700;28;20213;-65
2022/10/10 11:03:26;;;;;;;8.52;2.35;;;;;;;28.31;40.14;96701.44;2078665;28;20264;-65
2022/10/10 11:05:19;;;;;;;8.73;2.00;;;;;;;29.19;39.51;96704.50;2081978;28;20201;-65
2022/10/10 11:06:35;;;;;;;8.60;2.03;;;;;;;29.49;38.58;96702.66;2070973;28;20217;-65
2022/10/10 11:07:53;;;;;;;6.90;1.90;;;;;;;29.80;37.89;96696.25;2074017;28;20229;-65
2022/10/10 11:09:27;;;;;;;13.70;1.80;;;;;;;30.30;36.83;96696.38;2083429;28;20280;-65
2022/10/10 11:11:25;;;;;;;16.33;2.50;;;;;;;30.74;36.29;96705.31;2059673;28;20250;-65
2022/10/10 11:12:41;;;;;;;6.20;2.38;;;;;;;30.22;37.08;96701.06;2076838;28;20236;-65
2022/10/10 11:13:57;;;;;;;5.80;1.55;;;;;;;30.45;37.77;96696.31;2073268;28;20232;-65
2022/10/10 11:15:28;;;;;;;6.70;1.95;;;;;;;30.68;36.71;96692.59;2081516;28;20696;-64
2022/10/10 11:16:54;;;;;;;5.70;2.00;;;;;;;30.59;36.13;96701.88;2074016;28;20201;-65
2022/10/10 11:18:15;;;;;;;10.52;2.10;;;;;;;30.29;36.77;96693.88;2075555;28;20258;-65
2022/10/10 11:19:31;;;;;;;10.60;2.20;;;;;;;27.97;40.35;96689.19;2089770;28;20199;-65
2022/10/10 11:20:53;;;;;;;12.10;3.08;;;;;;;27.53;41.93;96683.41;2075397;28;20197;-65
2022/10/10 11:22:08;;;;;;;10.18;2.40;;;;;;;25.80;44.36;96691.53;2070459;28;20632;-64
2022/10/10 11:23:15;;;;;;;18.45;2.97;;;;;;;27.84;41.32;96698.66;2074425;28;20683;-64
2022/10/10 11:24:31;;;;;;;11.55;3.30;;;;;;;28.80;39.29;96689.47;2075776;28;20239;-65
2022/10/10 11:25:46;;;;;;;8.07;2.35;;;;;;;28.81;39.40;96693.81;2075265;28;20193;-64
2022/10/10 11:26:53;;;;;;;14.25;2.55;;;;;;;29.22;36.84;96676.44;2077310;28;20288;-65
2022/10/10 11:28:01;;;;;;;12.32;2.60;;;;;;;29.42;36.59;96680.25;2069962;28;20247;-65
2022/10/10 11:29:18;;;;;;;13.00;2.83;;;;;;;29.91;36.58;96691.41;2069612;28;20222;-64
2022/10/10 11:30:25;;;;;;;15.73;3.35;;;;;;;30.62;35.42;96693.38;2069507;28;20221;-65
2022/10/10 11:31:35;;;;;;;10.90;2.67;;;;;;;29.21;37.45;96680.97;2067795;28;20241;-65
2022/10/10 11:32:53;;;;;;;12.07;2.72;;;;;;;29.49;37.63;96694.59;2064420;28;20652;-64
2022/10/10 11:40:41;;;;;;;10.60;2.35;;;;;;;29.88;35.20;96686.41;2068380;28;20656;-63
2022/10/10 11:42:04;;;;;;;16.15;3.03;;;;;;;28.51;37.47;96677.59;2067552;28;20232;-63
2022/10/10 11:43:15;;;;;;;14.50;2.33;;;;;;;28.47;37.69;96662.88;2064011;28;20336;-63
2022/10/10 11:44:39;;;;;;;18.85;2.80;;;;;;;29.31;34.74;96678.84;2067796;28;20293;-63
2022/10/10 11:45:46;;;;;;;13.18;3.03;;;;;;;28.50;35.72;96679.44;2068185;28;20232;-67
2022/10/10 11:47:23;;;;;;;13.85;2.42;;;;;;;28.43;34.03;96677.66;2066607;28;20209;-67
2022/10/10 11:48:41;;;;;;;20.20;3.22;;;;;;;26.47;35.87;96669.19;2067862;28;20292;-67
2022/10/10 11:49:59;;;;;;;28.25;3.42;;;;;;;25.00;38.20;96665.94;2069158;28;20556;-66
2022/10/10 11:57:48;;;;;;;10.77;2.65;;;;;;;24.85;46.22;96675.53;2063953;28;20221;-67
2022/10/10 11:58:57;;;;;;;16.15;2.42;;;;;;;24.57;47.12;96673.81;2065655;28;20201;-67
2022/10/10 12:00:06;;;;;;;8.52;2.70;;;;;;;24.99;46.70;96669.63;2063376;28;20334;-67
2022/10/10 12:01:21;;;;;;;26.58;11.45;;;;;;;26.16;44.74;96663.69;2065408;28;20202;-68
2022/10/10 12:02:31;;;;;;;14.85;3.00;;;;;;;26.72;44.96;96679.91;2061062;28;20202;-67
2022/10/10 12:10:09;;;;;;;13.93;2.63;;;;;;;28.42;41.51;96673.34;2076784;28;20687;-68
2022/10/10 12:11:23;;;;;;;13.57;2.72;;;;;;;28.94;40.52;96680.59;2076571;28;20291;-69
2022/10/10 12:12:53;;;;;;;14.27;2.72;;;;;;;29.07;39.49;96682.63;2077560;28;20315;-69
2022/10/10 12:13:57;;;;;;;16.67;2.95;;;;;;;29.40;38.91;96678.78;2078023;28;20296;-69
2022/10/10 12:21:15;;;;;;;20.20;3.55;;;;;;;28.41;38.39;96667.09;2076951;28;20213;-69
2022/10/10 12:22:23;;;;;;;15.75;2.05;;;;;;;29.23;37.81;96675.41;2072701;28;20224;-69
2022/10/10 12:23:29;;;;;;;16.88;2.80;;;;;;;29.41;36.42;96677.75;2095255;28;20285;-69
2022/10/10 12:24:34;;;;;;;15.65;2.60;;;;;;;29.39;36.86;96667.16;2083027;28;20288;-69
2022/10/10 12:25:44;;;;;;;13.63;2.67;;;;;;;29.54;36.07;96658.25;2072354;28;20661;-69
2022/10/10 12:26:52;;;;;;;7.53;2.45;;;;;;;29.17;35.78;96675.13;2067611;28;20563;-69
2022/10/10 12:28:22;;;;;;;14.95;2.55;;;;;;;29.48;36.18;96682.19;2069179;28;20412;-69
2022/10/10 12:29:42;;;;;;;19.55;3.38;;;;;;;28.92;36.13;96681.78;2080991;28;20263;-69
2022/10/10 12:30:51;;;;;;;16.45;3.42;;;;;;;29.04;34.79;96676.78;2077678;28;20559;-69
2022/10/10 12:32:26;;;;;;;19.73;2.75;;;;;;;27.93;35.10;96674.47;2077233;28;20205;-69
2022/10/10 12:33:27;;;;;;;10.82;3.20;;;;;;;28.34;35.98;96674.22;2074270;28;20694;-69
2022/10/10 12:34:47;;;;;;;13.30;2.88;;;;;;;28.47;36.33;96677.13;2078823;28;20209;-69
2022/10/10 12:35:48;;;;;;;14.18;3.10;;;;;;;28.00;36.32;96675.44;2086265;28;20284;-69
2022/10/10 12:37:09;;;;;;;25.50;2.92;;;;;;;26.62;39.25;96673.88;2084725;28;20230;-69
2022/10/10 12:38:15;;;;;;;18.13;3.30;;;;;;;27.48;37.70;96672.38;2077839;28;20732;-69
2022/10/10 12:39:16;;;;;;;24.45;3.72;;;;;;;28.51;37.13;96672.25;2074677;28;20351;-69
2022/10/10 12:40:20;;;;;;;24.13;3.20;;;;;;;28.79;36.63;96671.69;2075471;28;20889;-69
2022/10/10 12:41:41;;;;;;;12.43;3.25;;;;;;;28.00;37.22;96667.41;2078114;28;20577;-69
2022/10/10 12:42:47;;;;;;;15.88;2.58;;;;;;;28.19;36.73;96663.44;2080716;28;20277;-69
2022/10/10 12:43:50;;;;;;;14.23;2.80;;;;;;;28.89;36.47;96666.06;2094806;28;20207;-69
2022/10/10 12:44:56;;;;;;;13.90;3.22;;;;;;;28.90;35.93;96646.19;2080015;28;20197;-69
2022/10/10 12:57:45;;;;;;;10.40;2.60;;;;;;;28.86;36.99;96675.28;2074968;28;20210;-68
2022/10/10 12:58:48;;;;;;;15.90;2.20;;;;;;;29.45;36.31;96670.97;2075886;28;20235;-68
2022/10/10 12:59:50;;;;;;;15.45;2.80;;;;;;;29.88;35.30;96667.56;2074445;28;20324;-68
2022/10/10 13:00:53;;;;;;;15.63;2.83;;;;;;;29.71;35.26;96675.88;2075395;28;20633;-68
2022/10/10 13:02:01;;;;;;;15.95;2.83;;;;;;;29.34;35.45;96674.13;2075631;28;20592;-68
2022/10/10 13:03:10;;;;;;;9.63;2.63;;;;;;;29.96;35.17;96667.47;2073682;28;20217;-68
2022/10/10 13:04:16;;;;;;;14.82;2.90;;;;;;;30.41;33.83;96667.25;2075561;28;20201;-68
2022/10/10 13:05:24;;;;;;;18.58;3.72;;;;;;;30.37;33.71;96674.91;2076797;28;20288;-68
2022/10/10 13:06:42;;;;;;;20.80;2.95;;;;;;;29.12;34.88;96674.03;2076847;28;20224;-68
2022/10/10 13:07:46;;;;;;;12.80;2.73;;;;;;;29.67;34.58;96668.34;2077717;28;20259;-68
2022/10/10 13:08:53;;;;;;;36.77;3.40;;;;;;;29.73;34.20;96657.66;2092354;28;20420;-68
2022/10/10 13:10:05;;;;;;;18.17;3.55;;;;;;;29.73;34.56;96672.97;2082917;28;20429;-68
2022/10/10 13:11:12;;;;;;;26.40;3.73;;;;;;;28.09;36.08;96670.91;2079850;28;20247;-68
2022/10/10 13:12:19;;;;;;;10.00;2.75;;;;;;;28.19;36.03;96676.84;2077876;28;20505;-68
2022/10/10 13:13:20;;;;;;;7.77;3.00;;;;;;;28.40;35.79;96678.84;2075451;28;20300;-68
2022/10/10 13:14:24;;;;;;;14.65;3.60;;;;;;;29.29;35.00;96678.22;2077535;28;20474;-68
2022/10/10 13:15:27;;;;;;;27.08;2.97;;;;;;;29.26;35.21;96667.81;2077666;28;20300;-68
2022/10/10 13:16:28;;;;;;;12.60;2.67;;;;;;;29.70;34.12;96666.13;2076254;28;20664;-68
2022/10/10 13:17:40;;;;;;;13.95;2.60;;;;;;;27.92;36.53;96664.75;2075480;28;20620;-68
2022/10/10 13:18:48;;;;;;;7.75;2.38;;;;;;;27.38;37.80;96663.66;2084681;28;20848;-68
2022/10/10 13:19:51;;;;;;;12.73;2.97;;;;;;;27.49;37.75;96657.97;2078594;28;20230;-68
2022/10/10 13:20:54;;;;;;;20.83;3.97;;;;;;;28.78;36.35;96664.63;2077597;28;20233;-68
2022/10/10 13:21:56;;;;;;;11.20;3.05;;;;;;;28.07;36.52;96668.38;2078916;28;20283;-68
2022/10/10 13:23:01;;;;;;;23.60;3.55;;;;;;;28.60;35.88;96644.28;2077308;28;20303;-68
2022/10/10 13:24:05;;;;;;;15.85;3.33;;;;;;;28.96;35.04;96667.81;2075875;28;20237;-68
2022/10/10 13:25:10;;;;;;;14.18;3.47;;;;;;;29.42;34.75;96671.34;2074929;28;20232;-68
2022/10/10 13:32:58;;;;;;;14.07;4.40;;;;;;;26.56;39.59;96648.59;2078296;28;20970;-66
2022/10/10 13:34:03;;;;;;;25.42;6.13;;;;;;;26.33;40.15;96664.53;2078497;28;20241;-67
2022/10/10 13:35:13;;;;;;;14.65;4.10;;;;;;;25.62;41.39;96677.44;2077514;28;20271;-68
2022/10/10 13:36:20;;;;;;;14.68;3.88;;;;;;;25.90;41.44;96673.50;2077168;28;20317;-67
2022/10/10 13:37:22;;;;;;;20.70;3.97;;;;;;;26.60;40.43;96663.34;2077557;28;20288;-69
2022/10/10 13:38:24;;;;;;;20.90;3.60;;;;;;;27.15;39.34;96668.97;2077994;28;20228;-67
2022/10/10 13:39:28;;;;;;;19.85;3.13;;;;;;;27.10;39.44;96672.16;2077274;28;20205;-67
2022/10/10 13:40:30;;;;;;;20.70;2.90;;;;;;;27.06;39.54;96676.19;2077958;28;20197;-68
2022/10/10 13:41:31;;;;;;;13.38;2.63;;;;;;;27.51;38.23;96668.50;2076425;28;20845;-67
2022/10/10 13:42:36;;;;;;;13.93;2.80;;;;;;;27.89;38.01;96662.44;2071555;28;20316;-67
2022/10/10 13:43:39;;;;;;;17.80;3.38;;;;;;;27.84;37.70;96673.69;2085614;28;20649;-67
2022/10/10 13:50:04;;;;;;;21.42;3.55;;;;;;;26.03;41.56;96667.66;2076480;28;20213;-67
2022/10/10 13:51:09;;;;;;;10.38;2.70;;;;;;;25.53;42.63;96672.03;2077606;28;20355;-66
2022/10/10 13:52:22;;;;;;;17.92;3.45;;;;;;;25.27;43.25;96674.75;2077024;28;20679;-66
2022/10/10 13:53:30;;;;;;;17.77;3.33;;;;;;;25.61;42.27;96663.22;2077422;28;20237;-66
2022/10/10 13:54:37;;;;;;;7.30;2.42;;;;;;;25.19;43.15;96670.22;2076195;28;20275;-67
2022/10/10 13:55:38;;;;;;;16.02;3.65;;;;;;;26.21;41.72;96669.38;2077087;28;20236;-67
2022/10/10 13:56:40;;;;;;;16.38;3.00;;;;;;;25.76;41.96;96655.38;2078792;28;20241;-67
2022/10/10 13:57:42;;;;;;;37.33;3.95;;;;;;;25.98;40.71;96659.28;2077338;28;20213;-67
2022/10/10 13:58:52;;;;;;;15.38;2.85;;;;;;;25.95;40.76;96672.97;2079464;28;20291;-67
2022/10/10 14:00:04;;;;;;;17.38;4.18;;;;;;;24.87;43.14;96647.66;2076813;28;20232;-66
2022/10/10 14:01:28;;;;;;;24.92;2.90;;;;;;;25.80;42.11;96671.94;2076422;28;20212;-66
2022/10/10 14:02:32;;;;;;;15.35;3.47;;;;;;;25.70;41.16;96651.53;2079032;28;20687;-66
2022/10/10 14:03:34;;;;;;;26.23;3.63;;;;;;;25.95;41.23;96672.16;2078278;28;20197;-66
2022/10/10 14:04:43;;;;;;;23.90;3.22;;;;;;;25.05;42.34;96676.13;2076441;28;20508;-66
2022/10/10 14:05:45;;;;;;;18.45;2.83;;;;;;;25.22;42.17;96661.88;2078952;28;20235;-66
2022/10/10 14:06:58;;;;;;;12.25;3.38;;;;;;;25.02;40.84;96679.97;2077323;28;20332;-66
2022/10/10 14:07:59;;;;;;;20.23;3.42;;;;;;;25.33;41.01;96668.78;2075061;28;20300;-66
2022/10/10 14:09:26;;;;;;;34.00;11.30;;;;;;;25.39;40.92;96672.66;2077299;28;20229;-66
2022/10/10 14:10:34;;;;;;;25.95;7.00;;;;;;;25.38;41.24;96670.97;2078162;28;20229;-69
2022/10/10 14:11:36;;;;;;;14.45;3.25;;;;;;;25.64;41.16;96662.06;2076298;28;20225;-68
2022/10/10 14:12:53;;;;;;;19.88;4.15;;;;;;;26.33;40.28;96673.38;2077871;28;20679;-68
2022/10/10 14:14:04;;;;;;;12.43;2.28;;;;;;;26.14;40.77;96674.53;2073749;28;20297;-68
2022/10/10 14:15:28;;;;;;;14.23;3.10;;;;;;;25.65;41.93;96677.94;2077466;28;20285;-68
2022/10/10 14:16:30;;;;;;;23.85;3.72;;;;;;;25.31;40.78;96676.09;2074542;28;20199;-67
2022/10/10 14:17:31;;;;;;;17.15;4.05;;;;;;;25.16;41.11;96669.69;2073643;28;20352;-68
2022/10/10 14:18:32;;;;;;;20.25;3.58;;;;;;;24.99;41.35;96676.78;2078834;28;20401;-67
2022/10/10 14:19:34;;;;;;;18.73;4.18;;;;;;;24.78;42.29;96675.31;2077494;28;20235;-68
2022/10/10 14:20:35;;;;;;;18.00;3.95;;;;;;;25.22;42.13;96669.06;2076951;28;20249;-68
2022/10/10 14:21:36;;;;;;;16.90;2.80;;;;;;;25.04;43.55;96666.44;2076750;28;20312;-69
2022/10/10 14:22:38;;;;;;;22.10;3.70;;;;;;;24.70;44.27;96659.25;2077352;28;20332;-70
2022/10/10 14:23:39;;;;;;;16.80;2.75;;;;;;;24.98;44.58;96672.44;2078589;28;20729;-68
2022/10/10 14:24:41;;;;;;;18.45;3.05;;;;;;;25.17;43.27;96672.19;2078719;28;20281;-68
2022/10/10 14:25:45;;;;;;;12.32;2.67;;;;;;;24.60;44.07;96673.50;2074930;28;21128;-68
2022/10/10 14:32:05;;;;;;;12.77;3.05;;;;;;;25.18;42.85;96673.03;2074149;28;20286;-68
2022/10/10 14:33:15;;;;;;;29.55;4.07;;;;;;;24.94;43.49;96672.75;2069898;28;20218;-68
2022/10/10 14:34:16;;;;;;;26.27;4.05;;;;;;;24.77;43.69;96660.28;2078308;28;20266;-68
2022/10/10 14:35:18;;;;;;;16.77;2.80;;;;;;;24.71;43.47;96664.44;2075854;28;20701;-68
2022/10/10 14:36:20;;;;;;;11.27;2.90;;;;;;;24.44;44.22;96668.03;2075340;28;20204;-68
2022/10/10 14:37:25;;;;;;;14.60;3.10;;;;;;;24.31;44.39;96676.44;2079043;28;20844;-69
2022/10/10 14:38:27;;;;;;;21.65;3.30;;;;;;;24.41;44.87;96665.69;2078501;28;20308;-68
2022/10/10 14:39:28;;;;;;;15.70;4.07;;;;;;;24.55;44.79;96674.97;2080212;28;20623;-68
2022/10/10 14:40:33;;;;;;;14.10;3.80;;;;;;;24.02;45.48;96663.34;2074263;28;20205;-69
2022/10/10 14:41:35;;;;;;;20.40;3.60;;;;;;;24.66;45.26;96689.91;2076902;28;20284;-69
2022/10/10 14:42:36;;;;;;;31.30;4.05;;;;;;;24.22;46.07;96672.03;2073303;28;20304;-68
2022/10/10 14:43:38;;;;;;;19.60;2.70;;;;;;;24.26;45.46;96682.25;2072614;28;20651;-68
2022/10/10 14:44:46;;;;;;;13.35;2.85;;;;;;;24.33;44.64;96676.28;2076022;28;20218;-68
2022/10/10 14:45:49;;;;;;;25.50;3.80;;;;;;;24.58;44.33;96677.31;2077643;28;20193;-68
2022/10/10 14:46:50;;;;;;;18.05;3.35;;;;;;;24.55;44.45;96681.13;2076371;28;20241;-69
2022/10/10 14:47:52;;;;;;;20.42;3.00;;;;;;;24.66;44.65;96677.41;2075678;28;20221;-68
2022/10/10 14:48:53;;;;;;;21.05;3.33;;;;;;;24.67;44.66;96678.25;2075182;28;20204;-68
2022/10/10 14:49:56;;;;;;;21.52;3.40;;;;;;;24.94;44.14;96674.59;2079896;28;20715;-68
2022/10/10 14:50:57;;;;;;;13.60;3.60;;;;;;;25.18;43.61;96662.34;2079991;28;20208;-68
2022/10/10 14:52:00;;;;;;;26.65;3.75;;;;;;;25.27;43.74;96675.59;2080103;28;20193;-68